Time;durP1;ratioP1;P1;durP2;ratioP2;P2;SDS_P1;SDS_P2;PMS_P1;PMS_P2;Temp;Humidity;BMP_temperature;BMP_pressure;BME280_temperature;BME280_humidity;BME280_pressure;Samples;Min_cycle;Max_cycle;Signal;HPM_P1;HPM_P2
2021/03/14 00:01:52;;;;;;;18.00;9.38;;;10.40;99.90;;;;;;5041978;28;20218;-72
2021/03/14 00:04:20;;;;;;;16.58;9.65;;;10.30;99.90;;;;;;5043745;28;20246;-69
2021/03/14 00:06:46;;;;;;;14.63;9.05;;;10.30;99.90;;;;;;5039695;28;20625;-70
2021/03/14 00:09:13;;;;;;;14.23;8.73;;;10.40;99.90;;;;;;5043123;28;20227;-70
2021/03/14 00:11:39;;;;;;;12.90;9.48;;;10.40;99.90;;;;;;5040805;28;20233;-72
2021/03/14 00:14:06;;;;;;;16.83;9.57;;;10.40;99.90;;;;;;5041516;28;20223;-71
2021/03/14 00:16:33;;;;;;;14.57;9.80;;;10.30;99.90;;;;;;5044860;28;20226;-72
2021/03/14 00:18:59;;;;;;;15.25;9.93;;;10.40;99.90;;;;;;5040596;28;20227;-69
2021/03/14 00:21:26;;;;;;;10.10;8.10;;;10.40;99.90;;;;;;5040720;28;20226;-70
2021/03/14 00:23:53;;;;;;;13.05;9.02;;;10.40;99.90;;;;;;5041763;28;20649;-71
2021/03/14 00:26:20;;;;;;;16.15;9.32;;;10.40;99.90;;;;;;5044246;28;20246;-69
2021/03/14 00:28:46;;;;;;;13.07;8.32;;;10.40;99.90;;;;;;5043504;28;20242;-71
2021/03/14 00:31:13;;;;;;;11.00;8.30;;;10.30;99.90;;;;;;5040816;28;20227;-70
2021/03/14 00:33:39;;;;;;;10.55;7.38;;;10.20;99.90;;;;;;5039563;28;20234;-72
2021/03/14 00:36:07;;;;;;;14.65;7.97;;;10.20;99.90;;;;;;5042150;28;20923;-71
2021/03/14 00:38:34;;;;;;;13.85;7.63;;;10.10;99.90;;;;;;5042158;28;20585;-70
2021/03/14 00:41:01;;;;;;;9.57;6.85;;;10.10;99.90;;;;;;5040368;28;20238;-74
2021/03/14 00:43:28;;;;;;;11.18;6.65;;;10.00;99.90;;;;;;5043852;28;20276;-68
2021/03/14 00:45:54;;;;;;;8.75;6.38;;;10.00;99.90;;;;;;5040509;28;20223;-73
2021/03/14 00:48:21;;;;;;;11.00;7.22;;;10.10;99.90;;;;;;5042090;28;20219;-71
2021/03/14 00:50:47;;;;;;;11.05;6.80;;;10.10;99.90;;;;;;5038579;28;20937;-71
2021/03/14 00:53:14;;;;;;;8.63;6.05;;;10.10;99.90;;;;;;5038772;28;20300;-70
2021/03/14 00:55:42;;;;;;;9.88;6.68;;;10.10;99.90;;;;;;5037575;28;20215;-72
2021/03/14 00:58:08;;;;;;;7.80;6.00;;;10.10;99.90;;;;;;5035337;28;20215;-69
2021/03/14 01:00:35;;;;;;;10.43;6.20;;;10.20;99.90;;;;;;5042063;28;20597;-74
2021/03/14 01:03:01;;;;;;;11.32;6.55;;;10.10;99.90;;;;;;5041905;28;20605;-72
2021/03/14 01:05:28;;;;;;;13.13;6.63;;;10.10;99.90;;;;;;5041516;28;20227;-71
2021/03/14 01:07:55;;;;;;;10.13;6.43;;;10.10;99.90;;;;;;5040343;28;20227;-71
2021/03/14 01:10:21;;;;;;;8.95;6.05;;;10.20;99.90;;;;;;5040278;28;20210;-71
2021/03/14 01:12:49;;;;;;;10.55;6.50;;;10.10;99.90;;;;;;5036853;28;21704;-71
2021/03/14 01:15:16;;;;;;;6.95;5.32;;;10.20;99.90;;;;;;5038689;28;20222;-71
2021/03/14 01:17:43;;;;;;;6.05;4.85;;;10.20;99.90;;;;;;5041871;28;20227;-69
2021/03/14 01:20:13;;;;;;;6.95;5.18;;;10.10;99.90;;;;;;5038814;28;20219;-70
2021/03/14 01:22:40;;;;;;;12.18;6.43;;;10.20;99.90;;;;;;5037935;28;20254;-71
2021/03/14 01:25:08;;;;;;;11.27;6.55;;;10.20;99.90;;;;;;5039038;28;20215;-75
2021/03/14 01:27:35;;;;;;;9.90;5.53;;;10.20;99.90;;;;;;5039569;28;20223;-70
2021/03/14 01:30:05;;;;;;;8.02;6.07;;;10.20;99.90;;;;;;5042790;28;20234;-72
2021/03/14 01:32:31;;;;;;;7.80;5.93;;;10.20;99.90;;;;;;5043719;28;20716;-71
2021/03/14 01:34:58;;;;;;;11.15;5.78;;;10.10;99.90;;;;;;5046059;28;20234;-76
2021/03/14 01:37:24;;;;;;;7.97;5.72;;;10.00;99.90;;;;;;5058553;23;20223;-89
2021/03/14 01:39:51;;;;;;;11.48;6.15;;;9.90;99.90;;;;;;5053053;28;20224;-87
2021/03/14 01:42:25;;;;;;;7.28;5.07;;;9.80;99.90;;;;;;5050581;28;20231;-88
2021/03/14 01:44:52;;;;;;;7.07;5.03;;;9.60;99.90;;;;;;5051378;28;20214;-88
2021/03/14 01:47:25;;;;;;;10.52;6.18;;;9.60;99.90;;;;;;5051076;28;20228;-88
2021/03/14 01:49:52;;;;;;;8.30;5.53;;;9.50;99.90;;;;;;5047696;28;20222;-88
2021/03/14 01:52:18;;;;;;;10.00;6.20;;;9.40;99.90;;;;;;5053580;28;20709;-89
2021/03/14 01:54:45;;;;;;;8.13;5.68;;;9.40;99.90;;;;;;5050090;28;20692;-87
2021/03/14 01:57:12;;;;;;;7.22;5.32;;;9.30;99.90;;;;;;5047153;28;20231;-88
2021/03/14 01:59:39;;;;;;;6.10;4.68;;;9.30;99.90;;;;;;5046543;28;20227;-90
2021/03/14 02:02:06;;;;;;;6.93;4.65;;;9.30;99.90;;;;;;5053760;28;20215;-89
2021/03/14 02:04:33;;;;;;;6.38;5.07;;;9.30;99.90;;;;;;5047375;28;20220;-89
2021/03/14 02:07:00;;;;;;;6.22;4.15;;;9.40;99.90;;;;;;5046954;28;20227;-90
2021/03/14 02:09:26;;;;;;;4.82;3.70;;;9.30;99.90;;;;;;5043687;28;20234;-89
2021/03/14 02:11:57;;;;;;;7.05;4.35;;;9.40;99.90;;;;;;5047685;28;20264;-89
2021/03/14 02:14:24;;;;;;;6.25;4.72;;;9.40;99.90;;;;;;5043080;28;20254;-88
2021/03/14 02:16:52;;;;;;;8.13;5.57;;;9.40;99.90;;;;;;5056991;28;20273;-88
2021/03/14 02:19:26;;;;;;;7.05;5.20;;;9.40;99.90;;;;;;5060889;28;20227;-87
2021/03/14 02:21:53;;;;;;;6.53;4.40;;;9.40;99.90;;;;;;5061510;28;20214;-88
2021/03/14 02:24:25;;;;;;;7.32;4.75;;;9.40;99.90;;;;;;5057370;28;20222;-90
2021/03/14 02:27:03;;;;;;;5.18;4.30;;;9.40;99.90;;;;;;5056816;28;20260;-90
2021/03/14 02:29:33;;;;;;;4.03;3.63;;;9.50;99.90;;;;;;5055872;28;20237;-86
2021/03/14 02:32:01;;;;;;;5.43;3.95;;;9.40;99.90;;;;;;5055921;28;20223;-90
2021/03/14 02:34:32;;;;;;;5.15;3.95;;;9.40;99.90;;;;;;5055349;28;20218;-90
2021/03/14 02:37:01;;;;;;;5.07;4.22;;;9.40;99.90;;;;;;5056718;28;20249;-90
2021/03/14 02:39:29;;;;;;;6.78;4.47;;;9.40;99.90;;;;;;5054018;28;20219;-90
2021/03/14 02:41:58;;;;;;;4.90;3.42;;;9.40;99.90;;;;;;5053854;28;20227;-89
2021/03/14 02:44:30;;;;;;;4.78;3.80;;;9.40;99.90;;;;;;5051869;28;20218;-86
2021/03/14 02:46:57;;;;;;;5.75;4.05;;;9.40;99.90;;;;;;5055153;28;20223;-88
2021/03/14 02:49:24;;;;;;;4.80;4.03;;;9.40;99.90;;;;;;5058202;28;20241;-89
2021/03/14 02:51:51;;;;;;;5.57;3.97;;;9.40;99.90;;;;;;5056382;28;20712;-88
2021/03/14 02:54:19;;;;;;;9.30;4.63;;;9.40;99.90;;;;;;5056628;28;20719;-90
2021/03/14 02:56:47;;;;;;;4.20;3.80;;;9.40;99.90;;;;;;5052402;28;20233;-89
2021/03/14 02:59:16;;;;;;;4.47;4.07;;;9.30;99.90;;;;;;5048929;28;20215;-89
2021/03/14 03:01:46;;;;;;;5.07;3.92;;;9.40;99.90;;;;;;5049287;28;20238;-90
2021/03/14 03:04:14;;;;;;;10.07;5.78;;;9.30;99.90;;;;;;5047479;28;20223;-87
2021/03/14 03:06:41;;;;;;;7.30;5.18;;;9.30;99.90;;;;;;5051818;28;20226;-88
2021/03/14 03:09:10;;;;;;;6.68;4.95;;;9.20;99.90;;;;;;5055624;28;20227;-90
2021/03/14 03:11:38;;;;;;;8.27;5.70;;;9.20;99.90;;;;;;5054549;28;20219;-90
2021/03/14 03:14:06;;;;;;;7.38;5.80;;;9.20;99.90;;;;;;5057595;28;20589;-89
2021/03/14 03:16:33;;;;;;;6.10;4.90;;;9.10;99.90;;;;;;5051934;28;20276;-91
2021/03/14 03:19:01;;;;;;;6.55;4.53;;;9.10;99.90;;;;;;5060172;28;20222;-90
2021/03/14 03:21:29;;;;;;;9.73;6.18;;;9.00;99.90;;;;;;5053971;28;20284;-88
2021/03/14 03:23:55;;;;;;;9.55;5.70;;;9.00;99.90;;;;;;5065146;28;20752;-90
2021/03/14 03:26:22;;;;;;;7.55;5.30;;;8.80;99.90;;;;;;5054203;28;20230;-88
2021/03/14 03:28:50;;;;;;;13.55;7.35;;;8.80;99.90;;;;;;5055927;28;20248;-89
2021/03/14 03:31:16;;;;;;;7.90;5.90;;;8.60;99.90;;;;;;5057796;28;20272;-90
2021/03/14 03:33:43;;;;;;;6.90;5.35;;;8.50;99.90;;;;;;5053822;28;20230;-88
2021/03/14 03:36:11;;;;;;;9.00;5.38;;;8.40;99.90;;;;;;5048002;28;20219;-90
2021/03/14 03:38:37;;;;;;;6.45;4.97;;;8.40;99.90;;;;;;5049105;28;20245;-87
2021/03/14 03:41:04;;;;;;;6.28;4.45;;;8.50;99.90;;;;;;5050302;28;20234;-91
2021/03/14 03:43:34;;;;;;;4.90;4.40;;;8.50;99.90;;;;;;5046174;28;20226;-88
2021/03/14 03:46:02;;;;;;;8.18;5.35;;;8.50;99.90;;;;;;5050056;28;20716;-89
2021/03/14 03:48:33;;;;;;;5.85;4.85;;;8.50;99.90;;;;;;5052921;28;20697;-87
2021/03/14 03:51:03;;;;;;;5.45;4.68;;;8.50;99.90;;;;;;5053441;28;20214;-90
2021/03/14 03:53:32;;;;;;;5.50;4.55;;;8.50;99.90;;;;;;5050404;28;20223;-87
2021/03/14 03:56:00;;;;;;;5.30;4.47;;;8.50;99.90;;;;;;5048003;28;20220;-87
2021/03/14 03:58:27;;;;;;;5.07;4.40;;;8.50;99.90;;;;;;5054282;28;20225;-87
2021/03/14 04:00:55;;;;;;;5.15;4.15;;;8.50;99.90;;;;;;5049800;28;20242;-86
2021/03/14 04:03:23;;;;;;;5.43;4.65;;;8.50;99.90;;;;;;5059352;28;20720;-87
2021/03/14 04:05:56;;;;;;;6.00;4.82;;;8.40;99.90;;;;;;5057378;28;20237;-88
2021/03/14 04:08:23;;;;;;;6.13;4.93;;;8.40;99.90;;;;;;5060611;28;20219;-89
2021/03/14 04:10:52;;;;;;;7.28;4.60;;;8.40;99.90;;;;;;5058706;28;20222;-87
2021/03/14 04:13:20;;;;;;;5.30;4.75;;;8.40;99.90;;;;;;5062412;28;20222;-88
2021/03/14 04:15:46;;;;;;;5.45;4.95;;;8.40;99.90;;;;;;5052898;28;20689;-90
2021/03/14 04:18:14;;;;;;;6.47;5.03;;;8.40;99.90;;;;;;5055112;28;20242;-89
2021/03/14 04:20:42;;;;;;;5.32;4.82;;;8.30;99.90;;;;;;5048594;28;20261;-89
2021/03/14 04:23:14;;;;;;;8.77;4.63;;;8.30;99.90;;;;;;5058771;28;20218;-90
2021/03/14 04:25:41;;;;;;;5.32;4.82;;;8.40;99.90;;;;;;5052329;28;20219;-89
2021/03/14 04:28:09;;;;;;;4.90;3.97;;;8.40;99.90;;;;;;5049864;28;20230;-88
2021/03/14 04:30:36;;;;;;;4.70;4.30;;;8.40;99.90;;;;;;5042450;28;20277;-85
2021/03/14 04:33:04;;;;;;;9.02;4.45;;;8.40;99.90;;;;;;5047003;28;20219;-88
2021/03/14 04:35:32;;;;;;;6.65;4.90;;;8.40;99.90;;;;;;5048961;28;20229;-88
2021/03/14 04:37:59;;;;;;;8.70;4.88;;;8.50;99.90;;;;;;5046373;28;20230;-89
2021/03/14 04:40:27;;;;;;;6.13;5.47;;;8.50;99.90;;;;;;5046387;28;20266;-89
2021/03/14 04:42:55;;;;;;;6.45;4.97;;;8.50;99.90;;;;;;5040567;28;20636;-88
2021/03/14 04:45:24;;;;;;;7.95;5.60;;;8.50;99.90;;;;;;5042958;28;20225;-87
2021/03/14 04:47:51;;;;;;;8.90;5.07;;;8.40;99.90;;;;;;5049431;28;20467;-88
2021/03/14 04:50:22;;;;;;;7.53;6.10;;;8.30;99.90;;;;;;5043828;28;20223;-90
2021/03/14 04:52:52;;;;;;;5.47;4.97;;;8.20;99.90;;;;;;5046189;28;20249;-85
2021/03/14 04:55:20;;;;;;;5.65;4.50;;;8.30;99.90;;;;;;5048960;28;20747;-90
2021/03/14 04:57:47;;;;;;;5.70;5.18;;;8.30;99.90;;;;;;5049939;28;20230;-89
2021/03/14 05:00:16;;;;;;;6.45;5.65;;;8.30;99.90;;;;;;5044788;28;20227;-87
2021/03/14 05:02:48;;;;;;;6.47;5.05;;;8.30;99.90;;;;;;5052390;28;20230;-89
2021/03/14 05:05:15;;;;;;;5.28;4.70;;;8.30;99.90;;;;;;5052622;28;20237;-90
2021/03/14 05:07:43;;;;;;;5.82;4.32;;;8.30;99.90;;;;;;5044358;28;20253;-90
2021/03/14 05:10:14;;;;;;;6.43;4.63;;;8.30;99.90;;;;;;5044358;28;20852;-89
2021/03/14 05:12:42;;;;;;;4.68;4.10;;;8.40;99.90;;;;;;5046890;28;20282;-90
2021/03/14 05:15:11;;;;;;;5.03;4.53;;;8.40;99.90;;;;;;5048960;28;20215;-88
2021/03/14 05:17:39;;;;;;;4.05;3.67;;;8.40;99.90;;;;;;5051902;28;20229;-87
2021/03/14 05:20:09;;;;;;;5.32;4.57;;;8.40;99.90;;;;;;5052816;28;20227;-88
2021/03/14 05:22:37;;;;;;;5.28;4.05;;;8.50;99.90;;;;;;5056877;28;20227;-88
2021/03/14 05:25:05;;;;;;;5.85;4.88;;;8.50;99.90;;;;;;5055628;28;20218;-89
2021/03/14 05:27:32;;;;;;;5.88;5.10;;;8.40;99.90;;;;;;5050256;28;20238;-89
2021/03/14 05:29:59;;;;;;;5.88;5.07;;;8.30;99.90;;;;;;5048394;28;20231;-90
2021/03/14 05:32:26;;;;;;;5.82;4.90;;;8.20;99.90;;;;;;5046041;28;20223;-90
2021/03/14 05:34:53;;;;;;;7.70;5.28;;;8.20;99.90;;;;;;5050461;28;20230;-87
2021/03/14 05:37:20;;;;;;;5.82;4.95;;;8.20;99.90;;;;;;5044946;28;20230;-89
2021/03/14 05:39:47;;;;;;;7.38;5.30;;;8.10;99.90;;;;;;5054868;28;21092;-89
2021/03/14 05:42:15;;;;;;;5.25;4.75;;;8.20;99.90;;;;;;5059431;28;20222;-88
2021/03/14 05:44:42;;;;;;;5.07;4.57;;;8.20;99.90;;;;;;5052049;28;20214;-88
2021/03/14 05:47:09;;;;;;;4.18;3.85;;;8.20;99.90;;;;;;5052838;28;20230;-89
2021/03/14 05:49:35;;;;;;;5.35;4.20;;;8.30;99.90;;;;;;5050478;28;20241;-88
2021/03/14 05:52:05;;;;;;;4.90;4.45;;;8.30;99.90;;;;;;5055538;28;20219;-90
2021/03/14 05:54:33;;;;;;;4.35;3.95;;;8.40;99.90;;;;;;5057923;28;20236;-90
2021/03/14 05:57:03;;;;;;;5.22;4.13;;;8.40;99.90;;;;;;5056452;28;20242;-90
2021/03/14 05:59:30;;;;;;;5.65;4.65;;;8.40;99.90;;;;;;5056709;28;20237;-88
2021/03/14 06:02:00;;;;;;;5.45;4.80;;;8.40;99.90;;;;;;5058025;28;20273;-89
2021/03/14 06:04:28;;;;;;;5.20;4.55;;;8.40;99.90;;;;;;5057499;28;20223;-90
2021/03/14 06:06:55;;;;;;;6.43;4.97;;;8.40;99.90;;;;;;5056411;28;20231;-90
2021/03/14 06:09:22;;;;;;;8.10;5.07;;;8.30;99.90;;;;;;5059596;28;20219;-93
2021/03/14 06:11:49;;;;;;;6.28;5.68;;;8.40;99.90;;;;;;5059813;28;20665;-92
2021/03/14 06:14:16;;;;;;;8.20;5.93;;;8.30;99.90;;;;;;5061335;28;20693;-92
2021/03/14 06:16:43;;;;;;;12.25;10.35;;;8.30;99.90;;;;;;5055375;28;20282;-92
2021/03/14 06:19:10;;;;;;;13.68;10.35;;;8.10;99.90;;;;;;5060641;28;20249;-92
2021/03/14 06:21:37;;;;;;;12.15;10.15;;;7.90;99.90;;;;;;5054709;28;20582;-90
2021/03/14 06:24:06;;;;;;;11.63;9.82;;;7.70;99.90;;;;;;5051838;28;20682;-92
2021/03/14 06:26:38;;;;;;;18.17;12.68;;;7.60;99.90;;;;;;5054162;28;20227;-92
2021/03/14 06:32:29;;;;;;;15.52;12.35;;;7.40;99.90;;;;;;5035010;28;20215;-77
2021/03/14 06:35:09;;;;;;;13.98;12.38;;;7.40;99.90;;;;;;5040644;28;20234;-75
2021/03/14 06:37:35;;;;;;;14.20;10.50;;;7.30;99.90;;;;;;5021979;28;20219;-76
2021/03/14 06:40:09;;;;;;;11.48;8.82;;;7.20;99.90;;;;;;5016824;28;20706;-77
2021/03/14 06:42:37;;;;;;;6.95;5.65;;;7.00;99.90;;;;;;5015451;28;20991;-75
2021/03/14 06:45:06;;;;;;;5.70;5.10;;;6.70;99.90;;;;;;5027410;28;20623;-74
2021/03/14 06:47:39;;;;;;;6.28;5.28;;;6.60;99.90;;;;;;5028014;28;20223;-77
2021/03/14 06:50:07;;;;;;;4.55;4.15;;;6.50;99.90;;;;;;5028358;28;20226;-75
2021/03/14 06:52:33;;;;;;;4.28;3.88;;;6.40;99.90;;;;;;5024149;28;20227;-77
2021/03/14 06:55:00;;;;;;;3.97;3.55;;;6.30;99.90;;;;;;5024974;28;20215;-77
2021/03/14 06:57:26;;;;;;;4.60;4.20;;;6.30;99.90;;;;;;5014331;28;20648;-77
2021/03/14 06:59:54;;;;;;;4.35;4.03;;;6.30;99.90;;;;;;5014743;28;20226;-76
2021/03/14 07:02:22;;;;;;;4.40;4.00;;;6.30;99.90;;;;;;5024033;28;20231;-77
2021/03/14 07:04:51;;;;;;;3.72;3.42;;;6.30;99.90;;;;;;5026183;28;20825;-77
2021/03/14 07:07:30;;;;;;;4.25;3.95;;;6.40;99.90;;;;;;5027949;28;20223;-77
2021/03/14 07:09:59;;;;;;;3.80;3.50;;;6.40;99.90;;;;;;5021650;28;20222;-77
2021/03/14 07:12:29;;;;;;;3.63;3.33;;;6.50;99.90;;;;;;5015425;28;20232;-76
2021/03/14 07:14:56;;;;;;;4.57;4.18;;;6.50;99.90;;;;;;5015682;28;20238;-77
2021/03/14 07:17:31;;;;;;;3.88;3.60;;;6.60;99.90;;;;;;5012851;28;20231;-77
2021/03/14 07:20:00;;;;;;;3.83;3.53;;;6.70;99.90;;;;;;5016039;28;20254;-77
2021/03/14 07:22:27;;;;;;;3.97;3.67;;;6.70;99.90;;;;;;5022151;28;20227;-77
2021/03/14 07:24:54;;;;;;;8.00;6.40;;;6.80;99.90;;;;;;5024146;28;20234;-76
2021/03/14 07:27:23;;;;;;;19.45;14.52;;;6.80;99.90;;;;;;5026136;28;20280;-77
2021/03/14 07:29:51;;;;;;;10.30;9.20;;;6.80;99.90;;;;;;5028082;28;20216;-77
2021/03/14 07:32:18;;;;;;;11.50;9.20;;;6.80;99.90;;;;;;5011460;28;20234;-78
2021/03/14 07:34:45;;;;;;;7.50;6.80;;;6.80;99.90;;;;;;5020733;28;20220;-76
2021/03/14 07:37:12;;;;;;;5.88;5.38;;;6.80;99.90;;;;;;5023888;28;20234;-76
2021/03/14 07:39:39;;;;;;;4.93;4.50;;;6.80;99.90;;;;;;5024741;28;20598;-78
2021/03/14 07:42:06;;;;;;;4.53;4.13;;;6.90;99.90;;;;;;5017200;28;20223;-77
2021/03/14 07:44:34;;;;;;;4.82;4.43;;;6.80;99.90;;;;;;5020213;28;20296;-77
2021/03/14 07:47:02;;;;;;;4.45;4.05;;;6.80;99.90;;;;;;5022715;28;20227;-76
2021/03/14 07:49:28;;;;;;;4.10;3.80;;;6.70;99.90;;;;;;5010782;28;20214;-77
2021/03/14 07:51:58;;;;;;;3.83;3.53;;;6.70;99.90;;;;;;5011095;28;20222;-77
2021/03/14 07:54:29;;;;;;;3.40;3.10;;;6.80;99.90;;;;;;5010751;28;20227;-77
2021/03/14 07:57:00;;;;;;;3.20;3.00;;;6.80;99.90;;;;;;5020752;28;20231;-77
2021/03/14 07:59:29;;;;;;;3.72;3.53;;;6.80;99.90;;;;;;5018017;28;20226;-78
2021/03/14 08:02:30;;;;;;;2.70;2.50;;;6.90;99.90;;;;;;5010297;28;20219;-76
2021/03/14 08:05:00;;;;;;;3.70;3.40;;;6.90;99.90;;;;;;5020159;28;20226;-76
2021/03/14 08:07:47;;;;;;;3.40;3.20;;;7.00;99.90;;;;;;5019725;28;20736;-77
2021/03/14 08:10:33;;;;;;;3.50;3.20;;;7.00;99.90;;;;;;5014554;28;20246;-77
2021/03/14 08:13:01;;;;;;;4.43;3.60;;;6.90;99.90;;;;;;5019519;28;20219;-78
2021/03/14 08:15:29;;;;;;;3.08;2.88;;;6.80;99.90;;;;;;5013350;28;20254;-77
2021/03/14 08:17:58;;;;;;;3.95;3.65;;;6.80;99.90;;;;;;5012851;28;20740;-76
2021/03/14 08:20:39;;;;;;;4.60;4.20;;;6.80;99.90;;;;;;5012402;28;20230;-77
2021/03/14 08:23:08;;;;;;;4.13;3.72;;;6.70;99.90;;;;;;5016928;28;20220;-76
2021/03/14 08:25:41;;;;;;;3.63;3.33;;;6.70;99.90;;;;;;5024104;28;20899;-77
2021/03/14 08:28:37;;;;;;;3.00;2.80;;;6.70;99.90;;;;;;5011280;28;20219;-77
2021/03/14 08:31:06;;;;;;;3.03;2.83;;;6.80;99.90;;;;;;4926071;28;20553;-76
2021/03/14 08:33:45;;;;;;;3.47;3.17;;;6.90;99.90;;;;;;5001830;28;20234;-76
2021/03/14 08:36:14;;;;;;;3.10;2.90;;;6.90;99.90;;;;;;5015725;28;20235;-76
2021/03/14 08:38:46;;;;;;;2.80;2.60;;;6.90;99.90;;;;;;5011261;28;20256;-76
2021/03/14 08:41:29;;;;;;;3.90;3.55;;;6.80;99.90;;;;;;5010320;28;20278;-76
2021/03/14 08:44:02;;;;;;;3.03;2.83;;;6.80;99.90;;;;;;5011733;28;20223;-76
2021/03/14 08:47:05;;;;;;;3.97;3.63;;;6.80;99.90;;;;;;5011958;28;20373;-75
2021/03/14 08:49:34;;;;;;;3.78;3.47;;;6.90;99.90;;;;;;5008827;28;20232;-77
2021/03/14 08:52:02;;;;;;;4.30;3.90;;;6.90;99.90;;;;;;5010028;28;20219;-76
2021/03/14 08:54:30;;;;;;;3.97;3.67;;;6.90;99.90;;;;;;5011043;28;20223;-74
2021/03/14 08:57:01;;;;;;;3.53;3.22;;;7.00;99.90;;;;;;5013886;28;20718;-76
2021/03/14 08:59:28;;;;;;;3.85;3.55;;;7.00;99.90;;;;;;5009322;28;20223;-76
2021/03/14 09:01:57;;;;;;;3.40;3.20;;;7.10;99.90;;;;;;5007133;28;20231;-77
2021/03/14 09:04:26;;;;;;;3.63;3.33;;;7.20;99.90;;;;;;5011375;28;20617;-77
2021/03/14 09:06:53;;;;;;;3.47;3.17;;;7.30;99.90;;;;;;5014305;28;20215;-76
2021/03/14 09:09:21;;;;;;;3.40;3.15;;;7.30;99.90;;;;;;5023055;28;20227;-78
2021/03/14 09:11:50;;;;;;;3.17;2.92;;;7.40;99.90;;;;;;5023649;28;20230;-77
2021/03/14 09:14:26;;;;;;;3.47;3.28;;;7.40;99.90;;;;;;5009972;28;20231;-77
2021/03/14 09:16:55;;;;;;;3.72;3.42;;;7.40;99.90;;;;;;5009724;28;20223;-77
2021/03/14 09:19:28;;;;;;;3.75;2.80;;;7.50;99.90;;;;;;5009130;28;20219;-78
2021/03/14 09:21:56;;;;;;;3.17;2.97;;;7.50;99.90;;;;;;5009113;28;20231;-79
2021/03/14 09:24:29;;;;;;;2.80;2.60;;;7.50;99.90;;;;;;5011307;28;21080;-78
2021/03/14 09:26:57;;;;;;;2.85;2.47;;;7.70;99.90;;;;;;5009796;28;20228;-78
2021/03/14 09:29:39;;;;;;;3.28;2.40;;;7.80;99.90;;;;;;5007523;28;20223;-79
2021/03/14 09:32:22;;;;;;;2.60;2.40;;;7.90;99.90;;;;;;5010022;28;20361;-78
2021/03/14 09:34:50;;;;;;;2.50;2.40;;;7.90;99.90;;;;;;5010966;28;20232;-77
2021/03/14 09:37:27;;;;;;;2.40;2.30;;;8.00;99.90;;;;;;5007185;28;20249;-78
2021/03/14 09:40:24;;;;;;;2.30;2.20;;;8.10;99.90;;;;;;5007791;28;21004;-78
2021/03/14 09:42:53;;;;;;;1.95;1.85;;;8.20;99.90;;;;;;5007420;28;20227;-77
2021/03/14 09:45:22;;;;;;;2.85;2.65;;;8.30;99.90;;;;;;5011518;28;20234;-76
2021/03/14 09:48:05;;;;;;;2.60;2.40;;;8.30;99.90;;;;;;5007049;28;20599;-79
2021/03/14 09:50:33;;;;;;;2.80;2.60;;;8.30;99.90;;;;;;5014961;28;20628;-78
2021/03/14 09:53:01;;;;;;;2.08;1.98;;;8.30;99.90;;;;;;5014929;28;20227;-79
2021/03/14 09:55:29;;;;;;;2.42;2.30;;;8.30;99.90;;;;;;5009018;28;20269;-78
2021/03/14 09:57:57;;;;;;;2.72;2.40;;;8.30;99.90;;;;;;5014142;28;20606;-78
2021/03/14 10:00:27;;;;;;;2.83;2.13;;;8.30;99.90;;;;;;5008699;28;20250;-77
2021/03/14 10:02:53;;;;;;;2.13;2.03;;;8.30;99.90;;;;;;5015121;28;20215;-77
2021/03/14 10:05:20;;;;;;;3.50;3.30;;;8.30;99.90;;;;;;5021245;28;20224;-77
2021/03/14 10:07:54;;;;;;;4.20;3.80;;;8.30;99.90;;;;;;5018012;28;20227;-77
2021/03/14 10:10:21;;;;;;;3.67;3.38;;;8.30;99.90;;;;;;5015516;28;20255;-78
2021/03/14 10:12:48;;;;;;;3.70;3.20;;;8.30;99.90;;;;;;5014383;28;20224;-75
2021/03/14 10:15:17;;;;;;;3.15;2.95;;;8.30;99.90;;;;;;5012723;28;20219;-76
2021/03/14 10:17:48;;;;;;;2.53;2.33;;;8.30;99.90;;;;;;5013577;28;20227;-75
2021/03/14 10:20:19;;;;;;;2.50;2.30;;;8.40;99.90;;;;;;5014401;28;20215;-77
2021/03/14 10:22:46;;;;;;;2.80;2.60;;;8.60;99.90;;;;;;5013011;28;20224;-76
2021/03/14 10:25:24;;;;;;;3.63;2.92;;;8.80;99.90;;;;;;5013887;28;20223;-77
2021/03/14 10:27:51;;;;;;;4.18;3.78;;;9.00;99.90;;;;;;5013614;28;20304;-77
2021/03/14 10:30:19;;;;;;;7.05;6.55;;;9.20;99.90;;;;;;5013808;28;20219;-79
2021/03/14 10:32:48;;;;;;;3.40;3.20;;;9.40;99.90;;;;;;5012054;28;20223;-76
2021/03/14 10:35:15;;;;;;;4.25;4.05;;;9.60;99.90;;;;;;5019214;28;20702;-77
2021/03/14 10:37:43;;;;;;;3.28;3.08;;;9.80;99.90;;;;;;5020135;28;20296;-78
2021/03/14 10:40:12;;;;;;;5.03;2.55;;;9.90;99.90;;;;;;5017787;28;20231;-78
2021/03/14 10:42:41;;;;;;;2.20;2.10;;;10.20;99.90;;;;;;5021414;28;20227;-78
2021/03/14 10:45:12;;;;;;;2.45;2.22;;;10.50;99.90;;;;;;5019774;28;20709;-76
2021/03/14 10:47:39;;;;;;;2.17;2.08;;;10.80;99.90;;;;;;5016123;28;20918;-76
2021/03/14 10:50:13;;;;;;;1.88;1.77;;;11.20;99.90;;;;;;5021279;28;20215;-76
2021/03/14 10:52:40;;;;;;;1.55;1.50;;;11.30;99.90;;;;;;5020320;28;20226;-75
2021/03/14 10:55:25;;;;;;;2.20;2.00;;;11.40;99.90;;;;;;5022133;28;20228;-77
2021/03/14 10:58:04;;;;;;;2.10;2.00;;;11.30;99.90;;;;;;5015978;28;20756;-75
2021/03/14 11:00:31;;;;;;;8.85;1.77;;;11.40;99.90;;;;;;5019356;28;20223;-79
2021/03/14 11:03:00;;;;;;;1.67;1.58;;;11.50;99.90;;;;;;5020679;28;20226;-78
2021/03/14 11:05:27;;;;;;;1.70;1.60;;;11.50;99.90;;;;;;5021022;28;20220;-78
2021/03/14 11:07:58;;;;;;;2.60;1.63;;;11.60;99.90;;;;;;5018939;28;20235;-78
2021/03/14 11:10:25;;;;;;;1.80;1.70;;;11.70;99.90;;;;;;5017428;28;20219;-77
2021/03/14 11:12:52;;;;;;;1.83;1.73;;;11.80;99.90;;;;;;5017162;28;20220;-77
2021/03/14 11:15:25;;;;;;;2.47;1.60;;;12.00;99.90;;;;;;5018531;28;20607;-78
2021/03/14 11:17:52;;;;;;;1.30;1.30;;;12.30;99.90;;;;;;5013979;28;20238;-76
2021/03/14 11:20:20;;;;;;;1.50;1.40;;;12.50;99.90;;;;;;5022839;28;20894;-79
2021/03/14 11:22:50;;;;;;;2.78;2.58;;;12.50;99.90;;;;;;5022267;28;20225;-76
2021/03/14 11:25:18;;;;;;;1.63;1.52;;;12.60;99.90;;;;;;5019839;28;20220;-78
2021/03/14 11:27:44;;;;;;;1.77;1.67;;;12.80;99.90;;;;;;5015416;28;20230;-76
2021/03/14 11:30:12;;;;;;;1.58;1.55;;;12.80;99.60;;;;;;5020132;28;20351;-77
2021/03/14 11:32:39;;;;;;;1.70;1.60;;;12.80;98.60;;;;;;5022775;28;20234;-78
2021/03/14 11:35:07;;;;;;;1.67;1.58;;;12.80;97.40;;;;;;5019360;28;20227;-76
2021/03/14 11:37:33;;;;;;;1.38;1.33;;;12.90;97.80;;;;;;5015148;28;20228;-77
2021/03/14 11:40:01;;;;;;;1.20;1.20;;;13.00;96.00;;;;;;5015946;28;20232;-77
2021/03/14 11:42:28;;;;;;;1.40;1.30;;;13.00;96.20;;;;;;5018095;28;20226;-76
2021/03/14 11:44:55;;;;;;;1.73;1.63;;;13.30;96.00;;;;;;5021106;28;20223;-75
2021/03/14 11:47:22;;;;;;;1.27;1.25;;;13.40;95.30;;;;;;5022948;28;20219;-76
2021/03/14 11:49:49;;;;;;;1.30;1.30;;;13.50;94.80;;;;;;5018730;28;20219;-77
2021/03/14 11:52:16;;;;;;;1.50;1.40;;;13.60;94.50;;;;;;5014877;28;20216;-77
2021/03/14 11:54:43;;;;;;;5.88;1.50;;;13.70;94.30;;;;;;5017945;28;20285;-78
2021/03/14 11:57:11;;;;;;;2.42;1.50;;;13.50;92.50;;;;;;5020823;28;20425;-78
2021/03/14 11:59:38;;;;;;;3.25;1.40;;;13.30;93.00;;;;;;5018269;28;20227;-77
2021/03/14 12:02:05;;;;;;;1.25;1.25;;;13.10;91.90;;;;;;5020616;28;20277;-78
2021/03/14 12:04:32;;;;;;;1.20;1.10;;;13.10;91.10;;;;;;5019418;28;20216;-76
2021/03/14 12:06:59;;;;;;;1.58;1.48;;;12.90;91.80;;;;;;5014869;28;20235;-76
2021/03/14 12:09:26;;;;;;;1.20;1.20;;;12.70;91.50;;;;;;5013775;28;20277;-79
2021/03/14 12:11:53;;;;;;;1.40;1.40;;;12.50;91.40;;;;;;5021144;28;20219;-77
2021/03/14 12:14:21;;;;;;;1.17;1.05;;;12.40;90.80;;;;;;5017210;28;20226;-77
2021/03/14 12:16:47;;;;;;;1.25;1.23;;;12.20;90.20;;;;;;5015614;28;20246;-78
2021/03/14 12:19:14;;;;;;;1.08;1.08;;;12.10;90.40;;;;;;5016172;28;20251;-76
2021/03/14 12:21:41;;;;;;;1.45;1.35;;;12.10;89.80;;;;;;5014211;28;20708;-77
2021/03/14 12:24:08;;;;;;;1.40;1.30;;;12.10;89.20;;;;;;5013108;28;20223;-76
2021/03/14 12:26:34;;;;;;;1.30;1.30;;;12.20;88.80;;;;;;5013155;28;20227;-78
2021/03/14 12:29:04;;;;;;;1.23;1.23;;;12.20;83.20;;;;;;5012382;28;20822;-76
2021/03/14 12:31:31;;;;;;;1.30;1.20;;;12.50;86.70;;;;;;5019947;28;20230;-78
2021/03/14 12:33:58;;;;;;;1.30;1.30;;;12.50;85.10;;;;;;5017263;28;20741;-78
2021/03/14 12:36:24;;;;;;;1.50;1.40;;;12.60;82.70;;;;;;5019013;28;20828;-77
2021/03/14 12:38:51;;;;;;;1.40;1.30;;;12.80;84.60;;;;;;5018875;28;20222;-76
2021/03/14 12:41:18;;;;;;;1.60;1.50;;;12.90;85.50;;;;;;5025148;28;20218;-76
2021/03/14 12:43:44;;;;;;;1.42;1.42;;;13.20;84.00;;;;;;5015331;28;20273;-79
2021/03/14 12:46:11;;;;;;;1.40;1.30;;;13.50;85.40;;;;;;5022663;28;20590;-78
2021/03/14 12:48:38;;;;;;;1.80;1.70;;;13.70;84.20;;;;;;5019853;28;20231;-79
2021/03/14 12:51:05;;;;;;;1.65;1.55;;;13.70;82.30;;;;;;5020784;28;20223;-79
2021/03/14 12:53:32;;;;;;;1.50;1.50;;;13.80;81.50;;;;;;5019972;28;20310;-78
2021/03/14 12:55:59;;;;;;;1.48;1.42;;;13.80;82.10;;;;;;5022724;28;20709;-78
2021/03/14 12:58:25;;;;;;;1.30;1.30;;;13.80;79.20;;;;;;5020289;28;20227;-78
2021/03/14 13:00:52;;;;;;;1.20;1.20;;;13.60;79.40;;;;;;5020806;28;20219;-79
2021/03/14 13:03:19;;;;;;;1.00;1.00;;;13.40;80.50;;;;;;5021722;28;20220;-77
2021/03/14 13:05:46;;;;;;;3.45;3.15;;;13.20;80.80;;;;;;5021836;28;20956;-78